This is the latest recevied weather packets stored in our database for station/object K4NSC-13. If no packets are shown the sender has not sent any weather packets the latest 10 day(s).
| Time | Temp. | Humidity | Pressure | Rain* | Wind** | Luminosity | Snow |
|---|---|---|---|---|---|---|---|
| 1777751725 | 13.33° C | 81% | 1013.4 hPa | 0 mm | - | 277 W/m² | - |
| 1777749926 | 12.78° C | 86% | 1013.4 hPa | 0 mm | - | 250 W/m² | - |
| 1777746321 | 12.78° C | 89% | 1013.5 hPa | 0 mm | - | 340 W/m² | - |
| 1777743327 | 12.22° C | 95% | 1013.4 hPa | 0.25 mm | - | 338 W/m² | - |
| 1777736729 | 14.44° C | 97% | 1013.6 hPa | 0.51 mm | - | 125 W/m² | - |
| 1777730131 | 14.44° C | 98% | 1013 hPa | 2.29 mm | - | 53 W/m² | - |
| 1777724717 | 13.89° C | 98% | 1013.1 hPa | 2.79 mm | - | 14 W/m² | - |
| 1777721733 | 13.89° C | 98% | 1012.3 hPa | 0.51 mm | - | 13 W/m² | - |
| 1777718139 | 14.44° C | 98% | 1011.6 hPa | 1.78 mm | - | 1 W/m² | - |
| 1777716319 | 14.44° C | 98% | 1012.3 hPa | 3.56 mm | - | 0 W/m² | - |
| 1777714519 | 14.44° C | 98% | 1012.4 hPa | 8.38 mm | - | 0 W/m² | - |
| 1777713939 | 14.44° C | 98% | 1012.6 hPa | 8.64 mm | - | 0 W/m² | - |
| 1777706162 | 15.56° C | 96% | 1012.4 hPa | 0.51 mm | - | 0 W/m² | - |
| 1777703122 | 15° C | 96% | 1012.4 hPa | 0 mm | - | 0 W/m² | - |
| 1777700723 | 15° C | 95% | 1012.9 hPa | 0 mm | - | 0 W/m² | - |
| 1777698923 | 15° C | 95% | 1012.9 hPa | 0 mm | - | 0 W/m² | - |
| 1777694125 | 15° C | 95% | 1013.3 hPa | 0 mm | - | 0 W/m² | - |
| 1777693525 | 15° C | 95% | 1013.3 hPa | 0 mm | - | 0 W/m² | - |
| 1777691725 | 14.44° C | 95% | 1013.4 hPa | 0 mm | - | 0 W/m² | - |
| 1777689366 | 15° C | 93% | 1013.3 hPa | 0 mm | - | 0 W/m² | - |
| 1777686334 | 16.11° C | 92% | 1013.4 hPa | 0 mm | - | 0 W/m² | - |
| 1777684547 | 16.11° C | 90% | 1012.9 hPa | 0 mm | - | 0 W/m² | - |
| 1777677929 | 17.78° C | 82% | 1012.1 hPa | 0 mm | - | 41 W/m² | - |
| 1777672531 | 19.44° C | 70% | 1012.7 hPa | 0 mm | - | 220 W/m² | - |
| 1777671938 | 19.44° C | 70% | 1012.5 hPa | 0 mm | - | 207 W/m² | - |
* Rain latest hour (hover to see other rain measurements)
** Current wind speed in m/s (hover to see current wind gust speed)